sensor_id;sensor_type;location;lat;lon;timestamp;P1;durP1;ratioP1;P2;durP2;ratioP2
16510;SDS011;8368;48.772;8.754;2023-02-28T00:00:17;1.00;;;1.00;;
16510;SDS011;8368;48.772;8.754;2023-02-28T00:02:44;0.83;;;0.83;;
16510;SDS011;8368;48.772;8.754;2023-02-28T00:05:11;0.70;;;0.70;;
16510;SDS011;8368;48.772;8.754;2023-02-28T00:07:37;0.60;;;0.60;;
16510;SDS011;8368;48.772;8.754;2023-02-28T00:10:06;0.73;;;0.73;;
16510;SDS011;8368;48.772;8.754;2023-02-28T00:12:34;0.80;;;0.80;;
16510;SDS011;8368;48.772;8.754;2023-02-28T00:15:00;1.07;;;1.07;;
16510;SDS011;8368;48.772;8.754;2023-02-28T00:17:26;1.10;;;1.10;;
16510;SDS011;8368;48.772;8.754;2023-02-28T00:19:51;1.90;;;1.80;;
16510;SDS011;8368;48.772;8.754;2023-02-28T00:22:18;0.80;;;0.80;;
16510;SDS011;8368;48.772;8.754;2023-02-28T00:24:45;0.77;;;0.77;;
16510;SDS011;8368;48.772;8.754;2023-02-28T00:27:11;2.20;;;1.17;;
16510;SDS011;8368;48.772;8.754;2023-02-28T00:29:36;1.40;;;1.40;;
16510;SDS011;8368;48.772;8.754;2023-02-28T00:32:02;0.80;;;0.80;;
16510;SDS011;8368;48.772;8.754;2023-02-28T00:34:29;1.43;;;1.30;;
16510;SDS011;8368;48.772;8.754;2023-02-28T00:36:54;0.97;;;0.97;;
16510;SDS011;8368;48.772;8.754;2023-02-28T00:39:20;0.67;;;0.67;;
16510;SDS011;8368;48.772;8.754;2023-02-28T00:41:46;1.30;;;1.17;;
16510;SDS011;8368;48.772;8.754;2023-02-28T00:44:12;1.03;;;1.03;;
16510;SDS011;8368;48.772;8.754;2023-02-28T00:46:37;1.13;;;0.83;;
16510;SDS011;8368;48.772;8.754;2023-02-28T00:49:03;1.17;;;1.17;;
16510;SDS011;8368;48.772;8.754;2023-02-28T00:51:28;1.37;;;1.37;;
16510;SDS011;8368;48.772;8.754;2023-02-28T00:53:54;1.33;;;0.63;;
16510;SDS011;8368;48.772;8.754;2023-02-28T00:56:20;0.83;;;0.83;;
16510;SDS011;8368;48.772;8.754;2023-02-28T00:58:45;0.90;;;0.90;;
16510;SDS011;8368;48.772;8.754;2023-02-28T01:01:11;0.80;;;0.80;;
16510;SDS011;8368;48.772;8.754;2023-02-28T01:03:36;2.23;;;1.03;;
16510;SDS011;8368;48.772;8.754;2023-02-28T01:06:03;0.90;;;0.90;;
16510;SDS011;8368;48.772;8.754;2023-02-28T01:08:29;1.17;;;1.07;;
16510;SDS011;8368;48.772;8.754;2023-02-28T01:10:54;0.60;;;0.60;;
16510;SDS011;8368;48.772;8.754;2023-02-28T01:13:20;1.20;;;1.20;;
16510;SDS011;8368;48.772;8.754;2023-02-28T01:15:49;1.87;;;1.23;;
16510;SDS011;8368;48.772;8.754;2023-02-28T01:18:17;2.57;;;1.47;;
16510;SDS011;8368;48.772;8.754;2023-02-28T01:20:43;1.67;;;1.57;;
16510;SDS011;8368;48.772;8.754;2023-02-28T01:23:09;1.70;;;1.53;;
16510;SDS011;8368;48.772;8.754;2023-02-28T01:25:35;2.47;;;1.30;;
16510;SDS011;8368;48.772;8.754;2023-02-28T01:28:01;1.10;;;0.90;;
16510;SDS011;8368;48.772;8.754;2023-02-28T01:30:26;1.30;;;1.20;;
16510;SDS011;8368;48.772;8.754;2023-02-28T01:32:52;1.17;;;1.17;;
16510;SDS011;8368;48.772;8.754;2023-02-28T01:35:18;1.20;;;1.20;;
16510;SDS011;8368;48.772;8.754;2023-02-28T01:37:44;3.90;;;1.53;;
16510;SDS011;8368;48.772;8.754;2023-02-28T01:40:10;1.03;;;1.03;;
16510;SDS011;8368;48.772;8.754;2023-02-28T01:42:36;1.10;;;1.10;;
16510;SDS011;8368;48.772;8.754;2023-02-28T01:47:54;1.20;;;1.20;;
16510;SDS011;8368;48.772;8.754;2023-02-28T01:50:24;1.07;;;1.07;;
16510;SDS011;8368;48.772;8.754;2023-02-28T01:52:53;1.00;;;0.90;;
16510;SDS011;8368;48.772;8.754;2023-02-28T01:55:22;1.50;;;1.40;;
16510;SDS011;8368;48.772;8.754;2023-02-28T01:57:54;1.57;;;1.10;;
16510;SDS011;8368;48.772;8.754;2023-02-28T02:00:22;1.50;;;1.40;;
16510;SDS011;8368;48.772;8.754;2023-02-28T02:02:54;1.13;;;1.00;;
16510;SDS011;8368;48.772;8.754;2023-02-28T02:05:24;1.90;;;1.70;;
16510;SDS011;8368;48.772;8.754;2023-02-28T02:07:57;1.70;;;1.60;;
16510;SDS011;8368;48.772;8.754;2023-02-28T02:10:29;0.77;;;0.77;;
16510;SDS011;8368;48.772;8.754;2023-02-28T02:13:21;1.40;;;1.30;;
16510;SDS011;8368;48.772;8.754;2023-02-28T02:19:04;3.70;;;1.90;;
16510;SDS011;8368;48.772;8.754;2023-02-28T02:22:21;0.80;;;0.80;;
16510;SDS011;8368;48.772;8.754;2023-02-28T02:25:23;1.73;;;1.50;;
16510;SDS011;8368;48.772;8.754;2023-02-28T02:34:28;2.17;;;2.07;;
16510;SDS011;8368;48.772;8.754;2023-02-28T02:42:23;1.63;;;1.53;;
16510;SDS011;8368;48.772;8.754;2023-02-28T02:45:01;1.63;;;1.53;;
16510;SDS011;8368;48.772;8.754;2023-02-28T02:47:39;2.07;;;1.90;;
16510;SDS011;8368;48.772;8.754;2023-02-28T02:50:08;1.40;;;1.40;;
16510;SDS011;8368;48.772;8.754;2023-02-28T02:52:40;1.57;;;1.57;;
16510;SDS011;8368;48.772;8.754;2023-02-28T02:55:11;1.30;;;1.30;;
16510;SDS011;8368;48.772;8.754;2023-02-28T02:57:40;1.63;;;1.53;;
16510;SDS011;8368;48.772;8.754;2023-02-28T03:00:12;1.97;;;1.87;;
16510;SDS011;8368;48.772;8.754;2023-02-28T03:02:38;2.83;;;1.50;;
16510;SDS011;8368;48.772;8.754;2023-02-28T03:05:12;1.63;;;1.50;;
16510;SDS011;8368;48.772;8.754;2023-02-28T03:07:43;2.00;;;1.90;;
16510;SDS011;8368;48.772;8.754;2023-02-28T03:10:28;1.93;;;1.83;;
16510;SDS011;8368;48.772;8.754;2023-02-28T03:13:42;1.93;;;1.83;;
16510;SDS011;8368;48.772;8.754;2023-02-28T03:21:35;3.00;;;2.30;;
16510;SDS011;8368;48.772;8.754;2023-02-28T03:24:09;3.50;;;2.00;;
16510;SDS011;8368;48.772;8.754;2023-02-28T03:26:45;2.43;;;2.00;;
16510;SDS011;8368;48.772;8.754;2023-02-28T03:29:23;2.00;;;1.83;;
16510;SDS011;8368;48.772;8.754;2023-02-28T03:31:59;1.40;;;1.27;;
16510;SDS011;8368;48.772;8.754;2023-02-28T03:34:36;2.47;;;1.90;;
16510;SDS011;8368;48.772;8.754;2023-02-28T03:37:14;2.60;;;2.00;;
16510;SDS011;8368;48.772;8.754;2023-02-28T03:39:49;1.87;;;1.77;;
16510;SDS011;8368;48.772;8.754;2023-02-28T03:42:23;1.90;;;1.80;;
16510;SDS011;8368;48.772;8.754;2023-02-28T03:44:53;1.43;;;1.40;;
16510;SDS011;8368;48.772;8.754;2023-02-28T03:47:32;1.97;;;1.87;;
16510;SDS011;8368;48.772;8.754;2023-02-28T03:50:05;1.40;;;1.30;;
16510;SDS011;8368;48.772;8.754;2023-02-28T03:52:38;1.83;;;1.73;;
16510;SDS011;8368;48.772;8.754;2023-02-28T03:55:34;2.63;;;2.20;;
16510;SDS011;8368;48.772;8.754;2023-02-28T03:58:21;1.33;;;1.23;;
16510;SDS011;8368;48.772;8.754;2023-02-28T04:01:20;2.07;;;1.80;;
16510;SDS011;8368;48.772;8.754;2023-02-28T04:03:51;2.67;;;2.10;;
16510;SDS011;8368;48.772;8.754;2023-02-28T04:06:20;2.77;;;2.57;;
16510;SDS011;8368;48.772;8.754;2023-02-28T04:08:47;1.40;;;1.40;;
16510;SDS011;8368;48.772;8.754;2023-02-28T04:11:21;4.33;;;2.50;;
16510;SDS011;8368;48.772;8.754;2023-02-28T04:13:49;2.43;;;2.13;;
16510;SDS011;8368;48.772;8.754;2023-02-28T04:16:15;1.70;;;1.60;;
16510;SDS011;8368;48.772;8.754;2023-02-28T04:18:41;1.90;;;1.83;;
16510;SDS011;8368;48.772;8.754;2023-02-28T04:21:10;1.90;;;1.80;;
16510;SDS011;8368;48.772;8.754;2023-02-28T04:23:36;2.00;;;1.20;;
16510;SDS011;8368;48.772;8.754;2023-02-28T04:26:02;2.30;;;1.90;;
16510;SDS011;8368;48.772;8.754;2023-02-28T04:28:28;8.47;;;2.43;;
16510;SDS011;8368;48.772;8.754;2023-02-28T04:30:58;1.87;;;1.77;;
16510;SDS011;8368;48.772;8.754;2023-02-28T04:33:25;2.47;;;2.37;;
16510;SDS011;8368;48.772;8.754;2023-02-28T04:36:00;1.87;;;1.77;;
16510;SDS011;8368;48.772;8.754;2023-02-28T04:38:29;4.97;;;2.73;;
16510;SDS011;8368;48.772;8.754;2023-02-28T04:40:56;1.20;;;1.20;;
16510;SDS011;8368;48.772;8.754;2023-02-28T04:43:23;2.53;;;2.20;;
16510;SDS011;8368;48.772;8.754;2023-02-28T04:45:48;3.43;;;2.40;;
16510;SDS011;8368;48.772;8.754;2023-02-28T04:48:14;3.30;;;1.53;;
16510;SDS011;8368;48.772;8.754;2023-02-28T04:50:39;4.10;;;2.67;;
16510;SDS011;8368;48.772;8.754;2023-02-28T04:53:05;3.50;;;1.87;;
16510;SDS011;8368;48.772;8.754;2023-02-28T04:55:31;1.90;;;1.80;;
16510;SDS011;8368;48.772;8.754;2023-02-28T04:57:56;2.30;;;2.17;;
16510;SDS011;8368;48.772;8.754;2023-02-28T05:00:22;2.00;;;1.90;;
16510;SDS011;8368;48.772;8.754;2023-02-28T05:02:48;1.90;;;1.80;;
16510;SDS011;8368;48.772;8.754;2023-02-28T05:05:13;1.70;;;1.60;;
16510;SDS011;8368;48.772;8.754;2023-02-28T05:07:43;1.80;;;1.70;;
16510;SDS011;8368;48.772;8.754;2023-02-28T05:10:09;2.10;;;2.00;;
16510;SDS011;8368;48.772;8.754;2023-02-28T05:12:35;2.23;;;2.00;;
16510;SDS011;8368;48.772;8.754;2023-02-28T05:15:01;2.07;;;1.90;;
16510;SDS011;8368;48.772;8.754;2023-02-28T05:17:27;3.10;;;2.47;;
16510;SDS011;8368;48.772;8.754;2023-02-28T05:19:53;2.87;;;2.67;;
16510;SDS011;8368;48.772;8.754;2023-02-28T05:22:18;2.90;;;2.70;;
16510;SDS011;8368;48.772;8.754;2023-02-28T05:24:44;1.57;;;1.47;;
16510;SDS011;8368;48.772;8.754;2023-02-28T05:27:09;1.80;;;1.70;;
16510;SDS011;8368;48.772;8.754;2023-02-28T05:29:38;2.43;;;2.27;;
16510;SDS011;8368;48.772;8.754;2023-02-28T05:32:10;2.93;;;2.73;;
16510;SDS011;8368;48.772;8.754;2023-02-28T05:34:37;1.87;;;1.77;;
16510;SDS011;8368;48.772;8.754;2023-02-28T05:37:04;2.40;;;2.20;;
16510;SDS011;8368;48.772;8.754;2023-02-28T05:39:30;3.03;;;2.00;;
16510;SDS011;8368;48.772;8.754;2023-02-28T05:41:56;2.37;;;2.27;;
16510;SDS011;8368;48.772;8.754;2023-02-28T05:44:21;3.50;;;2.57;;
16510;SDS011;8368;48.772;8.754;2023-02-28T05:46:47;4.07;;;3.07;;
16510;SDS011;8368;48.772;8.754;2023-02-28T05:49:12;2.70;;;2.50;;
16510;SDS011;8368;48.772;8.754;2023-02-28T05:51:38;3.03;;;2.50;;
16510;SDS011;8368;48.772;8.754;2023-02-28T05:54:04;2.13;;;2.03;;
16510;SDS011;8368;48.772;8.754;2023-02-28T05:56:31;2.27;;;2.13;;
16510;SDS011;8368;48.772;8.754;2023-02-28T05:58:59;1.90;;;1.80;;
16510;SDS011;8368;48.772;8.754;2023-02-28T06:04:01;2.50;;;2.30;;
16510;SDS011;8368;48.772;8.754;2023-02-28T06:06:28;2.20;;;2.10;;
16510;SDS011;8368;48.772;8.754;2023-02-28T06:08:54;2.37;;;2.27;;
16510;SDS011;8368;48.772;8.754;2023-02-28T06:11:20;2.20;;;2.10;;
16510;SDS011;8368;48.772;8.754;2023-02-28T06:13:46;2.40;;;2.13;;
16510;SDS011;8368;48.772;8.754;2023-02-28T06:16:12;2.93;;;2.50;;
16510;SDS011;8368;48.772;8.754;2023-02-28T06:18:38;2.03;;;1.93;;
16510;SDS011;8368;48.772;8.754;2023-02-28T06:21:04;3.27;;;3.07;;
16510;SDS011;8368;48.772;8.754;2023-02-28T06:23:29;3.27;;;2.93;;
16510;SDS011;8368;48.772;8.754;2023-02-28T06:25:55;2.30;;;2.20;;
16510;SDS011;8368;48.772;8.754;2023-02-28T06:28:23;2.70;;;2.53;;
16510;SDS011;8368;48.772;8.754;2023-02-28T06:30:50;3.77;;;2.13;;
16510;SDS011;8368;48.772;8.754;2023-02-28T06:33:15;2.50;;;1.70;;
16510;SDS011;8368;48.772;8.754;2023-02-28T06:35:43;2.47;;;2.30;;
16510;SDS011;8368;48.772;8.754;2023-02-28T06:38:11;1.90;;;1.80;;
16510;SDS011;8368;48.772;8.754;2023-02-28T06:40:36;5.07;;;3.10;;
16510;SDS011;8368;48.772;8.754;2023-02-28T06:43:02;3.30;;;2.57;;
16510;SDS011;8368;48.772;8.754;2023-02-28T06:45:28;3.70;;;3.27;;
16510;SDS011;8368;48.772;8.754;2023-02-28T06:47:53;2.77;;;2.57;;
16510;SDS011;8368;48.772;8.754;2023-02-28T06:50:19;3.00;;;2.70;;
16510;SDS011;8368;48.772;8.754;2023-02-28T06:52:45;2.77;;;2.17;;
16510;SDS011;8368;48.772;8.754;2023-02-28T06:55:11;3.87;;;2.63;;
16510;SDS011;8368;48.772;8.754;2023-02-28T06:57:37;2.97;;;2.70;;
16510;SDS011;8368;48.772;8.754;2023-02-28T07:00:05;1.10;;;1.10;;
16510;SDS011;8368;48.772;8.754;2023-02-28T07:02:33;2.23;;;2.13;;
16510;SDS011;8368;48.772;8.754;2023-02-28T07:05:02;2.00;;;1.90;;
16510;SDS011;8368;48.772;8.754;2023-02-28T07:07:29;3.00;;;2.77;;
16510;SDS011;8368;48.772;8.754;2023-02-28T07:09:54;2.50;;;2.27;;
16510;SDS011;8368;48.772;8.754;2023-02-28T07:12:20;4.37;;;2.73;;
16510;SDS011;8368;48.772;8.754;2023-02-28T07:14:46;2.60;;;2.40;;
16510;SDS011;8368;48.772;8.754;2023-02-28T07:17:11;2.93;;;2.73;;
16510;SDS011;8368;48.772;8.754;2023-02-28T07:19:37;4.10;;;1.80;;
16510;SDS011;8368;48.772;8.754;2023-02-28T07:22:04;4.80;;;2.53;;
16510;SDS011;8368;48.772;8.754;2023-02-28T07:24:30;4.10;;;2.47;;
16510;SDS011;8368;48.772;8.754;2023-02-28T07:26:56;3.50;;;2.37;;
16510;SDS011;8368;48.772;8.754;2023-02-28T07:29:21;2.03;;;1.83;;
16510;SDS011;8368;48.772;8.754;2023-02-28T07:31:47;2.10;;;2.00;;
16510;SDS011;8368;48.772;8.754;2023-02-28T07:34:13;3.27;;;2.93;;
16510;SDS011;8368;48.772;8.754;2023-02-28T07:36:38;3.93;;;2.47;;
16510;SDS011;8368;48.772;8.754;2023-02-28T07:39:04;3.50;;;2.10;;
16510;SDS011;8368;48.772;8.754;2023-02-28T07:41:30;4.27;;;2.83;;
16510;SDS011;8368;48.772;8.754;2023-02-28T07:43:58;3.33;;;2.97;;
16510;SDS011;8368;48.772;8.754;2023-02-28T07:46:25;2.63;;;2.43;;
16510;SDS011;8368;48.772;8.754;2023-02-28T07:48:50;3.23;;;1.93;;
16510;SDS011;8368;48.772;8.754;2023-02-28T07:51:16;2.80;;;2.63;;
16510;SDS011;8368;48.772;8.754;2023-02-28T07:53:42;2.50;;;2.40;;
16510;SDS011;8368;48.772;8.754;2023-02-28T07:56:07;2.40;;;2.20;;
16510;SDS011;8368;48.772;8.754;2023-02-28T07:58:33;2.57;;;2.33;;
16510;SDS011;8368;48.772;8.754;2023-02-28T08:01:08;3.23;;;2.90;;
16510;SDS011;8368;48.772;8.754;2023-02-28T08:03:35;2.73;;;2.53;;
16510;SDS011;8368;48.772;8.754;2023-02-28T08:06:03;2.53;;;2.27;;
16510;SDS011;8368;48.772;8.754;2023-02-28T08:08:29;2.93;;;2.77;;
16510;SDS011;8368;48.772;8.754;2023-02-28T08:10:57;3.30;;;2.77;;
16510;SDS011;8368;48.772;8.754;2023-02-28T08:13:25;2.57;;;2.30;;
16510;SDS011;8368;48.772;8.754;2023-02-28T08:15:52;2.90;;;2.63;;
16510;SDS011;8368;48.772;8.754;2023-02-28T08:18:18;2.77;;;2.37;;
16510;SDS011;8368;48.772;8.754;2023-02-28T08:20:44;3.27;;;2.80;;
16510;SDS011;8368;48.772;8.754;2023-02-28T08:23:09;6.47;;;3.30;;
16510;SDS011;8368;48.772;8.754;2023-02-28T08:25:35;2.77;;;2.53;;
16510;SDS011;8368;48.772;8.754;2023-02-28T08:28:00;3.23;;;2.93;;
16510;SDS011;8368;48.772;8.754;2023-02-28T08:30:26;2.30;;;2.10;;
16510;SDS011;8368;48.772;8.754;2023-02-28T08:32:53;2.57;;;2.37;;
16510;SDS011;8368;48.772;8.754;2023-02-28T08:35:19;3.70;;;2.77;;
16510;SDS011;8368;48.772;8.754;2023-02-28T08:37:44;2.47;;;2.20;;
16510;SDS011;8368;48.772;8.754;2023-02-28T08:40:12;2.73;;;2.63;;
16510;SDS011;8368;48.772;8.754;2023-02-28T08:42:42;4.90;;;2.97;;
16510;SDS011;8368;48.772;8.754;2023-02-28T08:45:09;3.17;;;2.60;;
16510;SDS011;8368;48.772;8.754;2023-02-28T08:47:36;3.33;;;3.13;;
16510;SDS011;8368;48.772;8.754;2023-02-28T08:50:01;4.20;;;3.13;;
16510;SDS011;8368;48.772;8.754;2023-02-28T08:52:27;9.50;;;3.30;;
16510;SDS011;8368;48.772;8.754;2023-02-28T08:54:52;2.43;;;2.33;;
16510;SDS011;8368;48.772;8.754;2023-02-28T08:57:18;3.77;;;2.97;;
16510;SDS011;8368;48.772;8.754;2023-02-28T08:59:43;3.80;;;3.03;;
16510;SDS011;8368;48.772;8.754;2023-02-28T09:02:11;2.87;;;2.60;;
16510;SDS011;8368;48.772;8.754;2023-02-28T09:04:38;3.27;;;3.07;;
16510;SDS011;8368;48.772;8.754;2023-02-28T09:07:03;2.80;;;2.60;;
16510;SDS011;8368;48.772;8.754;2023-02-28T09:09:29;7.10;;;3.03;;
16510;SDS011;8368;48.772;8.754;2023-02-28T09:11:57;3.80;;;3.50;;
16510;SDS011;8368;48.772;8.754;2023-02-28T09:14:23;3.07;;;2.77;;
16510;SDS011;8368;48.772;8.754;2023-02-28T09:16:48;3.83;;;2.53;;
16510;SDS011;8368;48.772;8.754;2023-02-28T09:19:14;3.30;;;2.87;;
16510;SDS011;8368;48.772;8.754;2023-02-28T09:21:40;3.57;;;2.37;;
16510;SDS011;8368;48.772;8.754;2023-02-28T09:24:06;3.50;;;3.07;;
16510;SDS011;8368;48.772;8.754;2023-02-28T09:26:32;2.57;;;2.47;;
16510;SDS011;8368;48.772;8.754;2023-02-28T09:28:59;3.53;;;2.77;;
16510;SDS011;8368;48.772;8.754;2023-02-28T09:31:26;4.87;;;3.77;;
16510;SDS011;8368;48.772;8.754;2023-02-28T09:33:54;3.90;;;2.73;;
16510;SDS011;8368;48.772;8.754;2023-02-28T09:36:21;4.33;;;3.00;;
16510;SDS011;8368;48.772;8.754;2023-02-28T09:38:47;4.37;;;3.53;;
16510;SDS011;8368;48.772;8.754;2023-02-28T09:41:19;5.17;;;3.07;;
16510;SDS011;8368;48.772;8.754;2023-02-28T09:43:49;3.63;;;2.97;;
16510;SDS011;8368;48.772;8.754;2023-02-28T09:46:27;5.13;;;3.57;;
16510;SDS011;8368;48.772;8.754;2023-02-28T09:49:07;6.10;;;3.23;;
16510;SDS011;8368;48.772;8.754;2023-02-28T09:54:18;3.93;;;3.30;;
16510;SDS011;8368;48.772;8.754;2023-02-28T10:05:05;3.37;;;3.07;;
16510;SDS011;8368;48.772;8.754;2023-02-28T10:10:42;4.37;;;3.73;;
16510;SDS011;8368;48.772;8.754;2023-02-28T10:13:19;4.13;;;3.13;;
16510;SDS011;8368;48.772;8.754;2023-02-28T10:15:46;4.10;;;3.80;;
16510;SDS011;8368;48.772;8.754;2023-02-28T10:18:16;3.60;;;3.30;;
16510;SDS011;8368;48.772;8.754;2023-02-28T10:20:47;3.50;;;3.17;;
16510;SDS011;8368;48.772;8.754;2023-02-28T10:23:22;3.63;;;3.33;;
16510;SDS011;8368;48.772;8.754;2023-02-28T10:25:58;6.23;;;4.03;;
16510;SDS011;8368;48.772;8.754;2023-02-28T10:28:25;3.67;;;3.30;;
16510;SDS011;8368;48.772;8.754;2023-02-28T10:30:53;4.23;;;3.27;;
16510;SDS011;8368;48.772;8.754;2023-02-28T10:33:33;5.27;;;4.30;;
16510;SDS011;8368;48.772;8.754;2023-02-28T10:36:00;5.50;;;3.83;;
16510;SDS011;8368;48.772;8.754;2023-02-28T10:38:28;3.47;;;3.17;;
16510;SDS011;8368;48.772;8.754;2023-02-28T10:41:08;4.13;;;3.73;;
16510;SDS011;8368;48.772;8.754;2023-02-28T10:43:34;3.67;;;3.17;;
16510;SDS011;8368;48.772;8.754;2023-02-28T10:46:01;6.43;;;3.83;;
16510;SDS011;8368;48.772;8.754;2023-02-28T10:50:56;4.47;;;4.07;;
16510;SDS011;8368;48.772;8.754;2023-02-28T10:53:27;6.60;;;3.40;;
16510;SDS011;8368;48.772;8.754;2023-02-28T11:01:18;5.83;;;3.30;;
16510;SDS011;8368;48.772;8.754;2023-02-28T11:03:44;2.97;;;2.77;;
16510;SDS011;8368;48.772;8.754;2023-02-28T11:06:15;4.20;;;3.70;;
16510;SDS011;8368;48.772;8.754;2023-02-28T11:08:47;3.13;;;2.80;;
16510;SDS011;8368;48.772;8.754;2023-02-28T11:11:21;3.47;;;3.10;;
16510;SDS011;8368;48.772;8.754;2023-02-28T11:13:51;5.20;;;3.90;;
16510;SDS011;8368;48.772;8.754;2023-02-28T11:16:18;5.20;;;4.07;;
16510;SDS011;8368;48.772;8.754;2023-02-28T11:18:49;5.13;;;4.33;;
16510;SDS011;8368;48.772;8.754;2023-02-28T11:21:21;4.03;;;3.67;;
16510;SDS011;8368;48.772;8.754;2023-02-28T11:23:51;4.83;;;3.80;;
16510;SDS011;8368;48.772;8.754;2023-02-28T11:26:38;3.23;;;2.90;;
16510;SDS011;8368;48.772;8.754;2023-02-28T11:29:10;6.60;;;4.43;;
16510;SDS011;8368;48.772;8.754;2023-02-28T11:32:00;5.60;;;3.80;;
16510;SDS011;8368;48.772;8.754;2023-02-28T11:34:38;3.10;;;2.80;;
16510;SDS011;8368;48.772;8.754;2023-02-28T11:37:05;5.37;;;4.37;;
16510;SDS011;8368;48.772;8.754;2023-02-28T11:39:43;5.80;;;4.33;;
16510;SDS011;8368;48.772;8.754;2023-02-28T11:47:22;3.97;;;3.67;;
16510;SDS011;8368;48.772;8.754;2023-02-28T11:50:07;4.60;;;3.70;;
16510;SDS011;8368;48.772;8.754;2023-02-28T11:53:01;4.17;;;3.77;;
16510;SDS011;8368;48.772;8.754;2023-02-28T11:55:36;4.70;;;3.73;;
16510;SDS011;8368;48.772;8.754;2023-02-28T11:58:12;6.00;;;4.30;;
16510;SDS011;8368;48.772;8.754;2023-02-28T12:06:27;4.77;;;4.17;;
16510;SDS011;8368;48.772;8.754;2023-02-28T12:09:13;4.53;;;4.13;;
16510;SDS011;8368;48.772;8.754;2023-02-28T12:11:53;5.77;;;3.97;;
16510;SDS011;8368;48.772;8.754;2023-02-28T12:20:21;4.20;;;3.27;;
16510;SDS011;8368;48.772;8.754;2023-02-28T12:25:47;4.97;;;4.43;;
16510;SDS011;8368;48.772;8.754;2023-02-28T12:28:14;4.77;;;3.67;;
16510;SDS011;8368;48.772;8.754;2023-02-28T12:33:35;3.77;;;3.47;;
16510;SDS011;8368;48.772;8.754;2023-02-28T12:36:10;6.87;;;3.80;;
16510;SDS011;8368;48.772;8.754;2023-02-28T12:38:44;4.73;;;4.27;;
16510;SDS011;8368;48.772;8.754;2023-02-28T12:41:15;5.43;;;4.23;;
16510;SDS011;8368;48.772;8.754;2023-02-28T12:44:07;3.90;;;3.53;;
16510;SDS011;8368;48.772;8.754;2023-02-28T12:46:55;4.97;;;4.03;;
16510;SDS011;8368;48.772;8.754;2023-02-28T12:51:56;4.43;;;4.00;;
16510;SDS011;8368;48.772;8.754;2023-02-28T12:57:22;4.30;;;3.90;;
16510;SDS011;8368;48.772;8.754;2023-02-28T13:00:14;4.40;;;3.97;;
16510;SDS011;8368;48.772;8.754;2023-02-28T13:03:06;5.93;;;4.53;;
16510;SDS011;8368;48.772;8.754;2023-02-28T13:09:16;6.53;;;4.60;;
16510;SDS011;8368;48.772;8.754;2023-02-28T13:11:45;3.77;;;3.47;;
16510;SDS011;8368;48.772;8.754;2023-02-28T13:14:29;3.93;;;3.63;;
16510;SDS011;8368;48.772;8.754;2023-02-28T13:17:02;4.20;;;3.73;;
16510;SDS011;8368;48.772;8.754;2023-02-28T13:19:35;5.27;;;4.57;;
16510;SDS011;8368;48.772;8.754;2023-02-28T13:22:02;4.00;;;3.70;;
16510;SDS011;8368;48.772;8.754;2023-02-28T13:24:36;6.17;;;4.27;;
16510;SDS011;8368;48.772;8.754;2023-02-28T13:39:53;5.10;;;4.07;;
16510;SDS011;8368;48.772;8.754;2023-02-28T13:48:14;4.33;;;3.83;;
16510;SDS011;8368;48.772;8.754;2023-02-28T13:50:21;5.20;;;4.50;;
16510;SDS011;8368;48.772;8.754;2023-02-28T13:55:29;4.37;;;4.07;;
16510;SDS011;8368;48.772;8.754;2023-02-28T14:00:37;4.87;;;4.13;;
16510;SDS011;8368;48.772;8.754;2023-02-28T14:03:14;4.20;;;3.80;;
16510;SDS011;8368;48.772;8.754;2023-02-28T14:08:52;3.90;;;3.53;;
16510;SDS011;8368;48.772;8.754;2023-02-28T14:11:29;4.33;;;3.93;;
16510;SDS011;8368;48.772;8.754;2023-02-28T14:14:00;5.73;;;4.20;;
16510;SDS011;8368;48.772;8.754;2023-02-28T14:16:28;4.90;;;4.40;;
16510;SDS011;8368;48.772;8.754;2023-02-28T14:21:53;5.23;;;4.20;;
16510;SDS011;8368;48.772;8.754;2023-02-28T14:30:07;4.67;;;3.80;;
16510;SDS011;8368;48.772;8.754;2023-02-28T14:33:17;4.83;;;3.90;;
16510;SDS011;8368;48.772;8.754;2023-02-28T14:36:06;4.37;;;4.07;;
16510;SDS011;8368;48.772;8.754;2023-02-28T14:38:46;4.83;;;3.67;;
16510;SDS011;8368;48.772;8.754;2023-02-28T14:41:17;4.40;;;4.00;;
16510;SDS011;8368;48.772;8.754;2023-02-28T14:43:50;5.60;;;4.10;;
16510;SDS011;8368;48.772;8.754;2023-02-28T14:46:19;2.97;;;2.77;;
16510;SDS011;8368;48.772;8.754;2023-02-28T14:48:46;4.83;;;4.43;;
16510;SDS011;8368;48.772;8.754;2023-02-28T14:51:18;4.73;;;3.67;;
16510;SDS011;8368;48.772;8.754;2023-02-28T14:53:46;7.33;;;4.47;;
16510;SDS011;8368;48.772;8.754;2023-02-28T14:56:22;4.37;;;3.67;;
16510;SDS011;8368;48.772;8.754;2023-02-28T14:58:55;4.07;;;3.73;;
16510;SDS011;8368;48.772;8.754;2023-02-28T15:01:21;7.83;;;4.73;;
16510;SDS011;8368;48.772;8.754;2023-02-28T15:03:49;5.30;;;3.90;;
16510;SDS011;8368;48.772;8.754;2023-02-28T15:06:27;4.23;;;3.50;;
16510;SDS011;8368;48.772;8.754;2023-02-28T15:09:10;5.13;;;3.93;;
16510;SDS011;8368;48.772;8.754;2023-02-28T15:11:40;3.90;;;3.53;;
16510;SDS011;8368;48.772;8.754;2023-02-28T15:14:13;4.97;;;3.87;;
16510;SDS011;8368;48.772;8.754;2023-02-28T15:16:43;4.87;;;4.23;;
16510;SDS011;8368;48.772;8.754;2023-02-28T15:19:13;5.00;;;4.20;;
16510;SDS011;8368;48.772;8.754;2023-02-28T15:21:47;5.27;;;3.43;;
16510;SDS011;8368;48.772;8.754;2023-02-28T15:24:28;4.03;;;3.63;;
16510;SDS011;8368;48.772;8.754;2023-02-28T15:27:02;8.97;;;4.20;;
16510;SDS011;8368;48.772;8.754;2023-02-28T15:29:32;6.00;;;4.43;;
16510;SDS011;8368;48.772;8.754;2023-02-28T15:32:07;4.47;;;3.67;;
16510;SDS011;8368;48.772;8.754;2023-02-28T15:34:43;5.10;;;4.30;;
16510;SDS011;8368;48.772;8.754;2023-02-28T15:39:55;5.77;;;4.23;;
16510;SDS011;8368;48.772;8.754;2023-02-28T15:42:27;5.30;;;4.37;;
16510;SDS011;8368;48.772;8.754;2023-02-28T15:44:54;5.03;;;4.57;;
16510;SDS011;8368;48.772;8.754;2023-02-28T15:47:23;5.63;;;4.47;;
16510;SDS011;8368;48.772;8.754;2023-02-28T15:49:52;4.73;;;3.97;;
16510;SDS011;8368;48.772;8.754;2023-02-28T15:52:42;4.37;;;3.97;;
16510;SDS011;8368;48.772;8.754;2023-02-28T15:55:17;4.83;;;3.97;;
16510;SDS011;8368;48.772;8.754;2023-02-28T15:57:47;4.40;;;4.00;;
16510;SDS011;8368;48.772;8.754;2023-02-28T16:00:20;5.20;;;4.20;;
16510;SDS011;8368;48.772;8.754;2023-02-28T16:02:47;5.63;;;4.40;;
16510;SDS011;8368;48.772;8.754;2023-02-28T16:07:53;4.80;;;4.23;;
16510;SDS011;8368;48.772;8.754;2023-02-28T16:10:20;6.53;;;4.40;;
16510;SDS011;8368;48.772;8.754;2023-02-28T16:12:48;6.03;;;4.23;;
16510;SDS011;8368;48.772;8.754;2023-02-28T16:15:20;3.90;;;3.50;;
16510;SDS011;8368;48.772;8.754;2023-02-28T16:17:52;4.30;;;3.80;;
16510;SDS011;8368;48.772;8.754;2023-02-28T16:20:22;4.67;;;4.13;;
16510;SDS011;8368;48.772;8.754;2023-02-28T16:22:53;4.90;;;3.67;;
16510;SDS011;8368;48.772;8.754;2023-02-28T16:25:20;6.73;;;4.83;;
16510;SDS011;8368;48.772;8.754;2023-02-28T16:27:54;6.03;;;4.10;;
16510;SDS011;8368;48.772;8.754;2023-02-28T16:30:25;6.30;;;3.90;;
16510;SDS011;8368;48.772;8.754;2023-02-28T16:32:54;5.90;;;4.20;;
16510;SDS011;8368;48.772;8.754;2023-02-28T16:35:20;5.57;;;4.07;;
16510;SDS011;8368;48.772;8.754;2023-02-28T16:37:47;4.77;;;4.37;;
16510;SDS011;8368;48.772;8.754;2023-02-28T16:42:43;6.20;;;4.80;;
16510;SDS011;8368;48.772;8.754;2023-02-28T16:45:14;5.10;;;4.00;;
16510;SDS011;8368;48.772;8.754;2023-02-28T16:47:45;8.10;;;6.22;;
16510;SDS011;8368;48.772;8.754;2023-02-28T16:50:30;6.63;;;5.10;;
16510;SDS011;8368;48.772;8.754;2023-02-28T16:52:57;5.43;;;4.47;;
16510;SDS011;8368;48.772;8.754;2023-02-28T16:55:23;6.13;;;4.57;;
16510;SDS011;8368;48.772;8.754;2023-02-28T16:57:58;5.30;;;4.53;;
16510;SDS011;8368;48.772;8.754;2023-02-28T17:00:25;6.67;;;4.60;;
16510;SDS011;8368;48.772;8.754;2023-02-28T17:02:52;8.70;;;4.50;;
16510;SDS011;8368;48.772;8.754;2023-02-28T17:05:18;7.13;;;4.80;;
16510;SDS011;8368;48.772;8.754;2023-02-28T17:07:45;5.50;;;4.97;;
16510;SDS011;8368;48.772;8.754;2023-02-28T17:10:18;4.93;;;3.83;;
16510;SDS011;8368;48.772;8.754;2023-02-28T17:12:49;8.17;;;4.70;;
16510;SDS011;8368;48.772;8.754;2023-02-28T17:15:15;6.97;;;5.07;;
16510;SDS011;8368;48.772;8.754;2023-02-28T17:17:42;5.97;;;5.27;;
16510;SDS011;8368;48.772;8.754;2023-02-28T17:20:13;5.07;;;4.03;;